sensor_id;sensor_type;location;lat;lon;timestamp;temperature;humidity
67054;SHT31;53960;51.826;5.850;2023-04-24T00:00:49;11.21;85.71
67054;SHT31;53960;51.826;5.850;2023-04-24T00:03:16;11.10;86.13
67054;SHT31;53960;51.826;5.850;2023-04-24T00:05:41;11.13;86.17
67054;SHT31;53960;51.826;5.850;2023-04-24T00:08:07;11.14;85.97
67054;SHT31;53960;51.826;5.850;2023-04-24T00:10:32;11.15;85.77
67054;SHT31;53960;51.826;5.850;2023-04-24T00:12:58;11.17;85.52
67054;SHT31;53960;51.826;5.850;2023-04-24T00:15:23;11.17;85.56
67054;SHT31;53960;51.826;5.850;2023-04-24T00:17:49;11.15;85.19
67054;SHT31;53960;51.826;5.850;2023-04-24T00:20:14;11.10;85.52
67054;SHT31;53960;51.826;5.850;2023-04-24T00:22:40;11.03;85.54
67054;SHT31;53960;51.826;5.850;2023-04-24T00:25:05;11.06;85.38
67054;SHT31;53960;51.826;5.850;2023-04-24T00:27:31;11.01;85.87
67054;SHT31;53960;51.826;5.850;2023-04-24T00:29:56;11.11;85.89
67054;SHT31;53960;51.826;5.850;2023-04-24T00:32:21;11.13;85.47
67054;SHT31;53960;51.826;5.850;2023-04-24T00:34:47;11.13;85.49
67054;SHT31;53960;51.826;5.850;2023-04-24T00:37:12;11.07;85.49
67054;SHT31;53960;51.826;5.850;2023-04-24T00:39:37;11.06;85.90
67054;SHT31;53960;51.826;5.850;2023-04-24T00:42:03;11.10;86.07
67054;SHT31;53960;51.826;5.850;2023-04-24T00:44:31;11.13;85.77
67054;SHT31;53960;51.826;5.850;2023-04-24T00:46:56;11.18;85.75
67054;SHT31;53960;51.826;5.850;2023-04-24T00:49:22;11.13;85.74
67054;SHT31;53960;51.826;5.850;2023-04-24T00:51:47;11.11;86.19
67054;SHT31;53960;51.826;5.850;2023-04-24T00:54:14;11.08;86.16
67054;SHT31;53960;51.826;5.850;2023-04-24T00:56:41;11.10;86.43
67054;SHT31;53960;51.826;5.850;2023-04-24T00:59:06;11.15;86.08
67054;SHT31;53960;51.826;5.850;2023-04-24T01:01:32;11.17;86.32
67054;SHT31;53960;51.826;5.850;2023-04-24T01:03:58;11.11;86.55
67054;SHT31;53960;51.826;5.850;2023-04-24T01:06:27;11.14;86.65
67054;SHT31;53960;51.826;5.850;2023-04-24T01:08:53;11.11;86.79
67054;SHT31;53960;51.826;5.850;2023-04-24T01:11:19;11.08;86.35
67054;SHT31;53960;51.826;5.850;2023-04-24T01:13:44;11.14;86.33
67054;SHT31;53960;51.826;5.850;2023-04-24T01:16:10;11.08;86.35
67054;SHT31;53960;51.826;5.850;2023-04-24T01:18:35;11.13;86.30
67054;SHT31;53960;51.826;5.850;2023-04-24T01:21:04;11.06;86.23
67054;SHT31;53960;51.826;5.850;2023-04-24T01:23:29;11.07;86.39
67054;SHT31;53960;51.826;5.850;2023-04-24T01:25:55;11.03;86.44
67054;SHT31;53960;51.826;5.850;2023-04-24T01:28:21;11.08;86.35
67054;SHT31;53960;51.826;5.850;2023-04-24T01:30:46;11.08;86.19
67054;SHT31;53960;51.826;5.850;2023-04-24T01:33:11;11.08;86.36
67054;SHT31;53960;51.826;5.850;2023-04-24T01:35:37;11.03;86.37
67054;SHT31;53960;51.826;5.850;2023-04-24T01:38:03;11.04;86.56
67054;SHT31;53960;51.826;5.850;2023-04-24T01:40:28;11.14;86.14
67054;SHT31;53960;51.826;5.850;2023-04-24T01:42:54;11.03;86.63
67054;SHT31;53960;51.826;5.850;2023-04-24T01:45:19;11.06;86.62
67054;SHT31;53960;51.826;5.850;2023-04-24T01:47:45;11.00;86.60
67054;SHT31;53960;51.826;5.850;2023-04-24T01:50:11;10.99;86.82
67054;SHT31;53960;51.826;5.850;2023-04-24T01:52:36;11.03;86.82
67054;SHT31;53960;51.826;5.850;2023-04-24T01:55:03;10.97;87.04
67054;SHT31;53960;51.826;5.850;2023-04-24T01:57:30;11.06;86.70
67054;SHT31;53960;51.826;5.850;2023-04-24T01:59:56;10.96;87.03
67054;SHT31;53960;51.826;5.850;2023-04-24T02:02:21;10.87;87.37
67054;SHT31;53960;51.826;5.850;2023-04-24T02:04:48;10.93;87.39
67054;SHT31;53960;51.826;5.850;2023-04-24T02:07:14;10.99;87.17
67054;SHT31;53960;51.826;5.850;2023-04-24T02:09:39;10.97;87.23
67054;SHT31;53960;51.826;5.850;2023-04-24T02:12:04;10.90;87.62
67054;SHT31;53960;51.826;5.850;2023-04-24T02:14:30;10.89;87.77
67054;SHT31;53960;51.826;5.850;2023-04-24T02:16:55;10.89;87.70
67054;SHT31;53960;51.826;5.850;2023-04-24T02:19:20;10.87;87.51
67054;SHT31;53960;51.826;5.850;2023-04-24T02:21:46;10.90;87.65
67054;SHT31;53960;51.826;5.850;2023-04-24T02:24:11;10.84;87.55
67054;SHT31;53960;51.826;5.850;2023-04-24T02:26:36;10.81;87.95
67054;SHT31;53960;51.826;5.850;2023-04-24T02:29:02;10.81;87.85
67054;SHT31;53960;51.826;5.850;2023-04-24T02:31:27;10.80;87.81
67054;SHT31;53960;51.826;5.850;2023-04-24T02:33:52;10.83;87.62
67054;SHT31;53960;51.826;5.850;2023-04-24T02:36:18;10.79;87.70
67054;SHT31;53960;51.826;5.850;2023-04-24T02:38:43;10.74;88.01
67054;SHT31;53960;51.826;5.850;2023-04-24T02:41:08;10.80;88.00
67054;SHT31;53960;51.826;5.850;2023-04-24T02:43:34;10.81;88.03
67054;SHT31;53960;51.826;5.850;2023-04-24T02:45:59;10.85;87.84
67054;SHT31;53960;51.826;5.850;2023-04-24T02:48:24;10.80;87.93
67054;SHT31;53960;51.826;5.850;2023-04-24T02:50:50;10.76;87.86
67054;SHT31;53960;51.826;5.850;2023-04-24T02:53:16;10.77;87.95
67054;SHT31;53960;51.826;5.850;2023-04-24T02:55:41;10.79;87.89
67054;SHT31;53960;51.826;5.850;2023-04-24T02:58:06;10.79;87.64
67054;SHT31;53960;51.826;5.850;2023-04-24T03:00:32;10.80;87.95
67054;SHT31;53960;51.826;5.850;2023-04-24T03:02:57;10.77;88.01
67054;SHT31;53960;51.826;5.850;2023-04-24T03:05:22;10.70;88.34
67054;SHT31;53960;51.826;5.850;2023-04-24T03:07:48;10.63;88.20
67054;SHT31;53960;51.826;5.850;2023-04-24T03:10:13;10.59;88.38
67054;SHT31;53960;51.826;5.850;2023-04-24T03:12:38;10.60;88.82
67054;SHT31;53960;51.826;5.850;2023-04-24T03:15:04;10.59;88.29
67054;SHT31;53960;51.826;5.850;2023-04-24T03:17:30;10.59;88.39
67054;SHT31;53960;51.826;5.850;2023-04-24T03:19:55;10.59;88.38
67054;SHT31;53960;51.826;5.850;2023-04-24T03:22:21;10.62;88.51
67054;SHT31;53960;51.826;5.850;2023-04-24T03:24:46;10.59;87.94
67054;SHT31;53960;51.826;5.850;2023-04-24T03:27:11;10.62;87.67
67054;SHT31;53960;51.826;5.850;2023-04-24T03:29:36;10.59;87.89
67054;SHT31;53960;51.826;5.850;2023-04-24T03:32:02;10.55;87.78
67054;SHT31;53960;51.826;5.850;2023-04-24T03:34:27;10.53;87.83
67054;SHT31;53960;51.826;5.850;2023-04-24T03:36:53;10.48;88.03
67054;SHT31;53960;51.826;5.850;2023-04-24T03:39:18;10.49;88.13
67054;SHT31;53960;51.826;5.850;2023-04-24T03:41:43;10.48;88.20
67054;SHT31;53960;51.826;5.850;2023-04-24T03:44:09;10.46;88.27
67054;SHT31;53960;51.826;5.850;2023-04-24T03:46:34;10.48;88.17
67054;SHT31;53960;51.826;5.850;2023-04-24T03:49:00;10.48;88.05
67054;SHT31;53960;51.826;5.850;2023-04-24T03:51:25;10.42;88.20
67054;SHT31;53960;51.826;5.850;2023-04-24T03:53:52;10.41;88.00
67054;SHT31;53960;51.826;5.850;2023-04-24T03:56:18;10.41;87.99
67054;SHT31;53960;51.826;5.850;2023-04-24T03:58:43;10.41;88.25
67054;SHT31;53960;51.826;5.850;2023-04-24T04:01:08;10.41;87.89
67054;SHT31;53960;51.826;5.850;2023-04-24T04:03:34;10.42;88.31
67054;SHT31;53960;51.826;5.850;2023-04-24T04:05:59;10.38;88.12
67054;SHT31;53960;51.826;5.850;2023-04-24T04:08:24;10.38;88.08
67054;SHT31;53960;51.826;5.850;2023-04-24T04:10:50;10.36;88.22
67054;SHT31;53960;51.826;5.850;2023-04-24T04:13:15;10.38;88.42
67054;SHT31;53960;51.826;5.850;2023-04-24T04:15:40;10.36;88.21
67054;SHT31;53960;51.826;5.850;2023-04-24T04:18:06;10.34;88.45
67054;SHT31;53960;51.826;5.850;2023-04-24T04:20:31;10.36;88.36
67054;SHT31;53960;51.826;5.850;2023-04-24T04:22:56;10.34;88.16
67054;SHT31;53960;51.826;5.850;2023-04-24T04:25:22;10.39;88.12
67054;SHT31;53960;51.826;5.850;2023-04-24T04:27:48;10.45;87.62
67054;SHT31;53960;51.826;5.850;2023-04-24T04:30:14;10.46;87.28
67054;SHT31;53960;51.826;5.850;2023-04-24T04:32:39;10.43;87.25
67054;SHT31;53960;51.826;5.850;2023-04-24T04:35:05;10.38;87.45
67054;SHT31;53960;51.826;5.850;2023-04-24T04:37:34;10.36;87.39
67054;SHT31;53960;51.826;5.850;2023-04-24T04:39:59;10.25;88.07
67054;SHT31;53960;51.826;5.850;2023-04-24T04:42:26;10.22;87.96
67054;SHT31;53960;51.826;5.850;2023-04-24T04:44:52;10.24;88.28
67054;SHT31;53960;51.826;5.850;2023-04-24T04:47:18;10.28;88.18
67054;SHT31;53960;51.826;5.850;2023-04-24T04:49:46;10.31;87.92
67054;SHT31;53960;51.826;5.850;2023-04-24T04:52:13;10.26;88.22
67054;SHT31;53960;51.826;5.850;2023-04-24T04:54:38;10.29;88.25
67054;SHT31;53960;51.826;5.850;2023-04-24T04:57:03;10.32;88.08
67054;SHT31;53960;51.826;5.850;2023-04-24T04:59:29;10.26;88.47
67054;SHT31;53960;51.826;5.850;2023-04-24T05:01:54;10.32;88.01
67054;SHT31;53960;51.826;5.850;2023-04-24T05:04:19;10.26;88.43
67054;SHT31;53960;51.826;5.850;2023-04-24T05:06:45;10.21;88.56
67054;SHT31;53960;51.826;5.850;2023-04-24T05:09:12;10.24;88.62
67054;SHT31;53960;51.826;5.850;2023-04-24T05:11:37;10.24;88.63
67054;SHT31;53960;51.826;5.850;2023-04-24T05:14:02;10.19;88.65
67054;SHT31;53960;51.826;5.850;2023-04-24T05:16:28;10.18;88.89
67054;SHT31;53960;51.826;5.850;2023-04-24T05:18:53;10.15;88.80
67054;SHT31;53960;51.826;5.850;2023-04-24T05:21:18;10.18;89.02
67054;SHT31;53960;51.826;5.850;2023-04-24T05:23:44;10.21;88.86
67054;SHT31;53960;51.826;5.850;2023-04-24T05:26:09;10.21;89.21
67054;SHT31;53960;51.826;5.850;2023-04-24T05:28:35;10.16;89.20
67054;SHT31;53960;51.826;5.850;2023-04-24T05:31:02;10.18;89.48
67054;SHT31;53960;51.826;5.850;2023-04-24T05:33:27;10.18;89.38
67054;SHT31;53960;51.826;5.850;2023-04-24T05:35:52;10.16;89.63
67054;SHT31;53960;51.826;5.850;2023-04-24T05:38:17;10.21;89.77
67054;SHT31;53960;51.826;5.850;2023-04-24T05:40:45;10.31;89.28
67054;SHT31;53960;51.826;5.850;2023-04-24T05:43:10;10.34;89.04
67054;SHT31;53960;51.826;5.850;2023-04-24T05:45:35;10.28;88.48
67054;SHT31;53960;51.826;5.850;2023-04-24T05:48:01;10.34;88.58
67054;SHT31;53960;51.826;5.850;2023-04-24T05:50:27;10.34;88.80
67054;SHT31;53960;51.826;5.850;2023-04-24T05:52:52;10.34;88.60
67054;SHT31;53960;51.826;5.850;2023-04-24T05:55:18;10.42;88.51
67054;SHT31;53960;51.826;5.850;2023-04-24T05:57:43;10.38;88.41
67054;SHT31;53960;51.826;5.850;2023-04-24T06:00:09;10.36;88.62
67054;SHT31;53960;51.826;5.850;2023-04-24T06:02:37;10.38;88.59
67054;SHT31;53960;51.826;5.850;2023-04-24T06:05:03;10.36;88.37
67054;SHT31;53960;51.826;5.850;2023-04-24T06:07:30;10.43;87.87
67054;SHT31;53960;51.826;5.850;2023-04-24T06:09:55;10.43;87.60
67054;SHT31;53960;51.826;5.850;2023-04-24T06:12:21;10.43;87.89
67054;SHT31;53960;51.826;5.850;2023-04-24T06:14:47;10.32;87.68
67054;SHT31;53960;51.826;5.850;2023-04-24T06:17:12;10.29;88.11
67054;SHT31;53960;51.826;5.850;2023-04-24T06:19:38;10.26;87.85
67054;SHT31;53960;51.826;5.850;2023-04-24T06:22:03;10.29;87.93
67054;SHT31;53960;51.826;5.850;2023-04-24T06:24:29;10.34;87.90
67054;SHT31;53960;51.826;5.850;2023-04-24T06:26:55;10.26;87.79
67054;SHT31;53960;51.826;5.850;2023-04-24T06:29:22;10.31;87.84
67054;SHT31;53960;51.826;5.850;2023-04-24T06:31:47;10.36;87.87
67054;SHT31;53960;51.826;5.850;2023-04-24T06:34:12;10.42;87.77
67054;SHT31;53960;51.826;5.850;2023-04-24T06:36:38;10.42;87.73
67054;SHT31;53960;51.826;5.850;2023-04-24T06:39:03;10.38;88.17
67054;SHT31;53960;51.826;5.850;2023-04-24T06:41:29;10.46;87.91
67054;SHT31;53960;51.826;5.850;2023-04-24T06:43:55;10.45;88.07
67054;SHT31;53960;51.826;5.850;2023-04-24T06:46:21;10.48;88.10
67054;SHT31;53960;51.826;5.850;2023-04-24T06:48:49;10.50;88.00
67054;SHT31;53960;51.826;5.850;2023-04-24T06:51:15;10.55;88.23
67054;SHT31;53960;51.826;5.850;2023-04-24T06:53:40;10.59;88.39
67054;SHT31;53960;51.826;5.850;2023-04-24T06:56:05;10.63;88.35
67054;SHT31;53960;51.826;5.850;2023-04-24T06:58:31;10.63;88.39
67054;SHT31;53960;51.826;5.850;2023-04-24T07:00:56;10.62;88.64
67054;SHT31;53960;51.826;5.850;2023-04-24T07:03:21;10.56;89.30
67054;SHT31;53960;51.826;5.850;2023-04-24T07:05:48;10.57;88.99
67054;SHT31;53960;51.826;5.850;2023-04-24T07:08:14;10.50;88.71
67054;SHT31;53960;51.826;5.850;2023-04-24T07:10:42;10.42;89.18
67054;SHT31;53960;51.826;5.850;2023-04-24T07:13:07;10.46;89.17
67054;SHT31;53960;51.826;5.850;2023-04-24T07:15:33;10.35;88.26
67054;SHT31;53960;51.826;5.850;2023-04-24T07:17:59;10.31;87.66
67054;SHT31;53960;51.826;5.850;2023-04-24T07:20:24;10.24;88.30
67054;SHT31;53960;51.826;5.850;2023-04-24T07:22:50;10.18;88.54
67054;SHT31;53960;51.826;5.850;2023-04-24T07:25:17;10.16;88.54
67054;SHT31;53960;51.826;5.850;2023-04-24T07:27:42;10.14;88.49
67054;SHT31;53960;51.826;5.850;2023-04-24T07:30:08;10.09;88.77
67054;SHT31;53960;51.826;5.850;2023-04-24T07:32:33;10.11;88.66
67054;SHT31;53960;51.826;5.850;2023-04-24T07:34:59;10.18;88.48
67054;SHT31;53960;51.826;5.850;2023-04-24T07:37:24;10.14;88.85
67054;SHT31;53960;51.826;5.850;2023-04-24T07:39:50;10.11;89.40
67054;SHT31;53960;51.826;5.850;2023-04-24T07:42:15;10.12;89.40
67054;SHT31;53960;51.826;5.850;2023-04-24T07:44:41;10.19;88.95
67054;SHT31;53960;51.826;5.850;2023-04-24T07:47:06;10.14;89.53
67054;SHT31;53960;51.826;5.850;2023-04-24T07:49:31;10.15;89.00
67054;SHT31;53960;51.826;5.850;2023-04-24T07:51:59;10.09;89.20
67054;SHT31;53960;51.826;5.850;2023-04-24T07:54:25;10.05;89.35
67054;SHT31;53960;51.826;5.850;2023-04-24T07:56:50;10.04;89.84
67054;SHT31;53960;51.826;5.850;2023-04-24T07:59:16;9.98;90.20
67054;SHT31;53960;51.826;5.850;2023-04-24T08:01:41;9.97;89.62
67054;SHT31;53960;51.826;5.850;2023-04-24T08:04:07;9.90;89.07
67054;SHT31;53960;51.826;5.850;2023-04-24T08:06:32;9.85;89.19
67054;SHT31;53960;51.826;5.850;2023-04-24T08:08:58;9.81;89.36
67054;SHT31;53960;51.826;5.850;2023-04-24T08:11:24;9.80;89.07
67054;SHT31;53960;51.826;5.850;2023-04-24T08:13:49;9.78;89.08
67054;SHT31;53960;51.826;5.850;2023-04-24T08:16:14;9.77;88.74
67054;SHT31;53960;51.826;5.850;2023-04-24T08:18:40;9.75;89.14
67054;SHT31;53960;51.826;5.850;2023-04-24T08:21:05;9.78;89.46
67054;SHT31;53960;51.826;5.850;2023-04-24T08:23:31;9.74;89.03
67054;SHT31;53960;51.826;5.850;2023-04-24T08:25:56;9.73;88.93
67054;SHT31;53960;51.826;5.850;2023-04-24T08:28:22;9.78;88.85
67054;SHT31;53960;51.826;5.850;2023-04-24T08:30:48;9.73;88.98
67054;SHT31;53960;51.826;5.850;2023-04-24T08:33:19;9.70;89.42
67054;SHT31;53960;51.826;5.850;2023-04-24T08:35:44;9.75;89.47
67054;SHT31;53960;51.826;5.850;2023-04-24T08:38:10;9.73;89.06
67054;SHT31;53960;51.826;5.850;2023-04-24T08:40:36;9.70;89.06
67054;SHT31;53960;51.826;5.850;2023-04-24T08:43:03;9.70;89.42
67054;SHT31;53960;51.826;5.850;2023-04-24T08:45:29;9.78;89.18
67054;SHT31;53960;51.826;5.850;2023-04-24T08:47:54;9.73;89.43
67054;SHT31;53960;51.826;5.850;2023-04-24T08:50:21;9.64;89.86
67054;SHT31;53960;51.826;5.850;2023-04-24T08:52:49;9.71;89.70
67054;SHT31;53960;51.826;5.850;2023-04-24T08:55:15;9.80;89.48
67054;SHT31;53960;51.826;5.850;2023-04-24T08:57:45;9.81;89.53
67054;SHT31;53960;51.826;5.850;2023-04-24T09:00:11;9.75;89.36
67054;SHT31;53960;51.826;5.850;2023-04-24T09:02:37;9.81;89.42
67054;SHT31;53960;51.826;5.850;2023-04-24T09:05:04;9.84;89.29
67054;SHT31;53960;51.826;5.850;2023-04-24T09:07:32;9.78;89.28
67054;SHT31;53960;51.826;5.850;2023-04-24T09:10:02;9.77;88.81
67054;SHT31;53960;51.826;5.850;2023-04-24T09:12:27;9.71;88.64
67054;SHT31;53960;51.826;5.850;2023-04-24T09:14:53;9.75;88.80
67054;SHT31;53960;51.826;5.850;2023-04-24T09:17:18;9.80;87.94
67054;SHT31;53960;51.826;5.850;2023-04-24T09:19:44;9.88;87.45
67054;SHT31;53960;51.826;5.850;2023-04-24T09:22:09;9.87;87.35
67054;SHT31;53960;51.826;5.850;2023-04-24T09:24:34;9.95;87.33
67054;SHT31;53960;51.826;5.850;2023-04-24T09:27:00;9.98;86.53
67054;SHT31;53960;51.826;5.850;2023-04-24T09:29:29;10.08;85.84
67054;SHT31;53960;51.826;5.850;2023-04-24T09:31:55;10.12;86.16
67054;SHT31;53960;51.826;5.850;2023-04-24T09:34:25;10.11;84.62
67054;SHT31;53960;51.826;5.850;2023-04-24T09:36:51;10.15;85.36
67054;SHT31;53960;51.826;5.850;2023-04-24T09:39:17;10.16;84.62
67054;SHT31;53960;51.826;5.850;2023-04-24T09:41:47;10.05;83.29
67054;SHT31;53960;51.826;5.850;2023-04-24T09:44:20;9.97;84.37
67054;SHT31;53960;51.826;5.850;2023-04-24T09:46:58;9.95;84.40
67054;SHT31;53960;51.826;5.850;2023-04-24T09:49:28;10.04;84.75
67054;SHT31;53960;51.826;5.850;2023-04-24T09:52:09;10.16;85.43
67054;SHT31;53960;51.826;5.850;2023-04-24T09:54:35;10.22;84.52
67054;SHT31;53960;51.826;5.850;2023-04-24T09:57:04;10.25;84.02
67054;SHT31;53960;51.826;5.850;2023-04-24T09:59:30;10.24;83.25
67054;SHT31;53960;51.826;5.850;2023-04-24T10:01:55;10.21;83.37
67054;SHT31;53960;51.826;5.850;2023-04-24T10:04:23;10.09;82.13
67054;SHT31;53960;51.826;5.850;2023-04-24T10:06:51;10.18;82.78
67054;SHT31;53960;51.826;5.850;2023-04-24T10:09:18;10.15;82.24
67054;SHT31;53960;51.826;5.850;2023-04-24T10:11:45;10.21;81.38
67054;SHT31;53960;51.826;5.850;2023-04-24T10:14:15;10.32;80.42
67054;SHT31;53960;51.826;5.850;2023-04-24T10:16:42;10.45;80.47
67054;SHT31;53960;51.826;5.850;2023-04-24T10:19:08;10.60;79.56
67054;SHT31;53960;51.826;5.850;2023-04-24T10:21:34;10.66;77.59
67054;SHT31;53960;51.826;5.850;2023-04-24T10:24:00;10.76;78.94
67054;SHT31;53960;51.826;5.850;2023-04-24T10:26:29;10.94;78.42
67054;SHT31;53960;51.826;5.850;2023-04-24T10:28:57;11.07;77.76
67054;SHT31;53960;51.826;5.850;2023-04-24T10:31:23;11.20;77.52
67054;SHT31;53960;51.826;5.850;2023-04-24T10:33:49;11.32;76.99
67054;SHT31;53960;51.826;5.850;2023-04-24T10:36:16;11.36;77.70
67054;SHT31;53960;51.826;5.850;2023-04-24T10:38:43;11.32;75.91
67054;SHT31;53960;51.826;5.850;2023-04-24T10:41:12;11.17;74.81
67054;SHT31;53960;51.826;5.850;2023-04-24T10:43:48;11.08;75.46
67054;SHT31;53960;51.826;5.850;2023-04-24T10:46:21;11.10;75.20
67054;SHT31;53960;51.826;5.850;2023-04-24T10:48:52;10.96;75.45
67054;SHT31;53960;51.826;5.850;2023-04-24T10:51:22;10.89;74.00
67054;SHT31;53960;51.826;5.850;2023-04-24T10:53:50;10.76;74.08
67054;SHT31;53960;51.826;5.850;2023-04-24T10:56:16;10.69;75.15
67054;SHT31;53960;51.826;5.850;2023-04-24T10:58:43;10.60;75.46
67054;SHT31;53960;51.826;5.850;2023-04-24T11:01:23;10.46;75.88
67054;SHT31;53960;51.826;5.850;2023-04-24T11:03:57;10.42;77.20
67054;SHT31;53960;51.826;5.850;2023-04-24T11:06:33;10.42;78.47
67054;SHT31;53960;51.826;5.850;2023-04-24T11:09:07;10.48;77.64
67054;SHT31;53960;51.826;5.850;2023-04-24T11:11:35;10.55;77.13
67054;SHT31;53960;51.826;5.850;2023-04-24T11:14:03;10.57;76.74
67054;SHT31;53960;51.826;5.850;2023-04-24T11:24:38;10.93;76.10
67054;SHT31;53960;51.826;5.850;2023-04-24T11:32:16;10.72;76.31
67054;SHT31;53960;51.826;5.850;2023-04-24T11:34:46;10.62;75.78
67054;SHT31;53960;51.826;5.850;2023-04-24T11:37:13;10.57;74.96
67054;SHT31;53960;51.826;5.850;2023-04-24T11:39:38;10.52;76.13
67054;SHT31;53960;51.826;5.850;2023-04-24T11:42:04;10.56;75.91
67054;SHT31;53960;51.826;5.850;2023-04-24T11:44:33;10.66;76.80
67054;SHT31;53960;51.826;5.850;2023-04-24T11:46:58;10.80;77.08
67054;SHT31;53960;51.826;5.850;2023-04-24T11:49:24;10.79;76.04
67054;SHT31;53960;51.826;5.850;2023-04-24T11:51:49;10.69;76.15
67054;SHT31;53960;51.826;5.850;2023-04-24T11:54:15;10.67;77.48
67054;SHT31;53960;51.826;5.850;2023-04-24T11:56:45;10.77;77.41
67054;SHT31;53960;51.826;5.850;2023-04-24T11:59:11;10.96;78.08
67054;SHT31;53960;51.826;5.850;2023-04-24T12:01:45;11.14;77.34
67054;SHT31;53960;51.826;5.850;2023-04-24T12:04:11;11.30;76.00
67054;SHT31;53960;51.826;5.850;2023-04-24T12:06:37;11.30;75.73
67054;SHT31;53960;51.826;5.850;2023-04-24T12:09:02;11.31;76.65
67054;SHT31;53960;51.826;5.850;2023-04-24T12:11:28;11.42;75.97
67054;SHT31;53960;51.826;5.850;2023-04-24T12:13:54;11.35;73.43
67054;SHT31;53960;51.826;5.850;2023-04-24T12:16:20;11.44;73.41
67054;SHT31;53960;51.826;5.850;2023-04-24T12:18:45;11.45;72.59
67054;SHT31;53960;51.826;5.850;2023-04-24T12:21:15;11.45;73.69
67054;SHT31;53960;51.826;5.850;2023-04-24T12:23:43;11.32;73.20
67054;SHT31;53960;51.826;5.850;2023-04-24T12:26:09;11.21;73.05
67054;SHT31;53960;51.826;5.850;2023-04-24T12:28:36;11.10;73.29
67054;SHT31;53960;51.826;5.850;2023-04-24T12:31:02;11.06;72.88
67054;SHT31;53960;51.826;5.850;2023-04-24T12:33:27;10.92;73.39
67054;SHT31;53960;51.826;5.850;2023-04-24T12:35:53;10.84;74.06
67054;SHT31;53960;51.826;5.850;2023-04-24T12:38:22;10.83;74.94
67054;SHT31;53960;51.826;5.850;2023-04-24T12:41:01;10.81;75.81
67054;SHT31;53960;51.826;5.850;2023-04-24T12:43:27;10.74;76.59
67054;SHT31;53960;51.826;5.850;2023-04-24T12:45:52;10.85;78.23
67054;SHT31;53960;51.826;5.850;2023-04-24T12:48:18;10.92;79.07
67054;SHT31;53960;51.826;5.850;2023-04-24T12:50:43;10.97;79.50
67054;SHT31;53960;51.826;5.850;2023-04-24T12:53:09;11.20;78.51
67054;SHT31;53960;51.826;5.850;2023-04-24T12:55:35;11.34;78.26
67054;SHT31;53960;51.826;5.850;2023-04-24T12:58:00;11.59;78.36
67054;SHT31;53960;51.826;5.850;2023-04-24T13:00:27;11.82;77.43
67054;SHT31;53960;51.826;5.850;2023-04-24T13:02:52;11.79;77.15
67054;SHT31;53960;51.826;5.850;2023-04-24T13:05:17;11.68;76.13
67054;SHT31;53960;51.826;5.850;2023-04-24T13:07:43;11.45;77.57
67054;SHT31;53960;51.826;5.850;2023-04-24T13:10:08;11.25;79.24
67054;SHT31;53960;51.826;5.850;2023-04-24T13:12:34;11.07;79.10
67054;SHT31;53960;51.826;5.850;2023-04-24T13:15:00;10.85;78.80
67054;SHT31;53960;51.826;5.850;2023-04-24T13:17:25;10.69;78.43
67054;SHT31;53960;51.826;5.850;2023-04-24T13:19:51;10.55;78.56
67054;SHT31;53960;51.826;5.850;2023-04-24T13:22:17;10.55;78.71
67054;SHT31;53960;51.826;5.850;2023-04-24T13:24:46;10.67;78.93
67054;SHT31;53960;51.826;5.850;2023-04-24T13:27:14;10.73;78.56
67054;SHT31;53960;51.826;5.850;2023-04-24T13:29:40;10.81;78.19
67054;SHT31;53960;51.826;5.850;2023-04-24T13:32:05;10.87;78.39
67054;SHT31;53960;51.826;5.850;2023-04-24T13:34:31;10.97;77.38
67054;SHT31;53960;51.826;5.850;2023-04-24T13:36:57;11.15;76.95
67054;SHT31;53960;51.826;5.850;2023-04-24T13:39:23;11.30;76.39
67054;SHT31;53960;51.826;5.850;2023-04-24T13:41:49;11.38;77.25
67054;SHT31;53960;51.826;5.850;2023-04-24T13:44:16;11.39;77.92
67054;SHT31;53960;51.826;5.850;2023-04-24T13:46:42;11.41;77.15
67054;SHT31;53960;51.826;5.850;2023-04-24T13:49:09;11.36;76.06
67054;SHT31;53960;51.826;5.850;2023-04-24T13:51:35;11.32;75.44
67054;SHT31;53960;51.826;5.850;2023-04-24T13:54:00;11.27;76.24
67054;SHT31;53960;51.826;5.850;2023-04-24T13:56:25;11.07;73.90
67054;SHT31;53960;51.826;5.850;2023-04-24T13:58:51;10.94;74.41
67054;SHT31;53960;51.826;5.850;2023-04-24T14:01:16;10.81;74.80
67054;SHT31;53960;51.826;5.850;2023-04-24T14:03:42;10.72;75.19
67054;SHT31;53960;51.826;5.850;2023-04-24T14:06:10;10.66;75.87
67054;SHT31;53960;51.826;5.850;2023-04-24T14:08:35;10.62;76.35
67054;SHT31;53960;51.826;5.850;2023-04-24T14:11:01;10.64;76.45
67054;SHT31;53960;51.826;5.850;2023-04-24T14:13:26;10.67;76.60
67054;SHT31;53960;51.826;5.850;2023-04-24T14:15:52;10.90;76.77
67054;SHT31;53960;51.826;5.850;2023-04-24T14:18:18;11.00;77.30
67054;SHT31;53960;51.826;5.850;2023-04-24T14:20:44;11.07;75.47
67054;SHT31;53960;51.826;5.850;2023-04-24T14:23:09;11.06;73.61
67054;SHT31;53960;51.826;5.850;2023-04-24T14:25:34;11.01;73.05
67054;SHT31;53960;51.826;5.850;2023-04-24T14:28:00;11.01;72.43
67054;SHT31;53960;51.826;5.850;2023-04-24T14:30:25;11.06;74.04
67054;SHT31;53960;51.826;5.850;2023-04-24T14:32:50;11.13;73.09
67054;SHT31;53960;51.826;5.850;2023-04-24T14:35:16;11.14;74.35
67054;SHT31;53960;51.826;5.850;2023-04-24T14:37:41;11.27;73.11
67054;SHT31;53960;51.826;5.850;2023-04-24T14:40:08;11.46;72.83
67054;SHT31;53960;51.826;5.850;2023-04-24T14:42:34;11.69;73.07
67054;SHT31;53960;51.826;5.850;2023-04-24T14:45:01;11.89;72.82
67054;SHT31;53960;51.826;5.850;2023-04-24T14:47:26;11.96;71.48
67054;SHT31;53960;51.826;5.850;2023-04-24T14:49:52;11.81;73.35
67054;SHT31;53960;51.826;5.850;2023-04-24T14:52:17;11.75;74.45
67054;SHT31;53960;51.826;5.850;2023-04-24T14:54:43;11.72;74.67
67054;SHT31;53960;51.826;5.850;2023-04-24T14:57:08;11.62;73.60
67054;SHT31;53960;51.826;5.850;2023-04-24T14:59:34;11.57;73.81
67054;SHT31;53960;51.826;5.850;2023-04-24T15:01:59;11.51;74.04
67054;SHT31;53960;51.826;5.850;2023-04-24T15:04:25;11.39;75.68
67054;SHT31;53960;51.826;5.850;2023-04-24T15:06:53;11.27;76.93
67054;SHT31;53960;51.826;5.850;2023-04-24T15:09:20;11.17;76.64
67054;SHT31;53960;51.826;5.850;2023-04-24T15:11:47;11.11;78.33
67054;SHT31;53960;51.826;5.850;2023-04-24T15:14:12;11.15;77.58
67054;SHT31;53960;51.826;5.850;2023-04-24T15:16:38;11.11;76.92
67054;SHT31;53960;51.826;5.850;2023-04-24T15:19:03;11.17;78.33
67054;SHT31;53960;51.826;5.850;2023-04-24T15:21:28;11.14;75.33
67054;SHT31;53960;51.826;5.850;2023-04-24T15:23:54;11.17;77.14
67054;SHT31;53960;51.826;5.850;2023-04-24T15:26:19;11.30;75.58
67054;SHT31;53960;51.826;5.850;2023-04-24T15:28:45;11.51;74.42
67054;SHT31;53960;51.826;5.850;2023-04-24T15:31:11;11.52;74.05
67054;SHT31;53960;51.826;5.850;2023-04-24T15:33:37;11.54;74.11
67054;SHT31;53960;51.826;5.850;2023-04-24T15:36:02;11.81;74.05
67054;SHT31;53960;51.826;5.850;2023-04-24T15:38:27;11.72;73.03